createdAt,value
2022-07-31T00:00:02.270Z,16.97
2022-07-31T00:01:02.235Z,16.89
2022-07-31T00:02:02.168Z,16.90
2022-07-31T00:03:02.168Z,16.99
2022-07-31T00:04:02.063Z,17.02
2022-07-31T00:05:02.012Z,16.90
2022-07-31T00:06:01.965Z,16.97
2022-07-31T00:07:02.121Z,16.96
2022-07-31T00:08:01.880Z,16.89
2022-07-31T00:09:01.813Z,16.99
2022-07-31T00:10:01.769Z,16.94
2022-07-31T00:11:01.711Z,16.97
2022-07-31T00:12:01.668Z,17.06
2022-07-31T00:13:01.631Z,17.02
2022-07-31T00:14:01.573Z,17.09
2022-07-31T00:15:01.518Z,17.09
2022-07-31T00:16:01.460Z,17.05
2022-07-31T00:17:01.694Z,17.14
2022-07-31T00:18:01.362Z,17.09
2022-07-31T00:19:01.319Z,17.05
2022-07-31T00:20:01.255Z,17.04
2022-07-31T00:21:01.226Z,17.12
2022-07-31T00:22:01.154Z,17.09
2022-07-31T00:23:01.104Z,17.08
2022-07-31T00:24:01.059Z,16.99
2022-07-31T00:25:01.003Z,16.99
2022-07-31T00:26:00.978Z,17.02
2022-07-31T00:27:01.501Z,16.97
2022-07-31T00:28:00.858Z,17.02
2022-07-31T00:29:00.805Z,17.04
2022-07-31T00:30:00.775Z,16.96
2022-07-31T00:31:00.713Z,17.06
2022-07-31T00:32:00.671Z,17.06
2022-07-31T00:33:00.603Z,16.94
2022-07-31T00:34:00.548Z,17.09
2022-07-31T00:35:00.517Z,17.04
2022-07-31T00:36:00.452Z,17.05
2022-07-31T00:37:00.853Z,17.04
2022-07-31T00:38:25.771Z,17.05
2022-07-31T00:39:00.301Z,17.01
2022-07-31T00:40:00.248Z,17.09
2022-07-31T00:41:00.217Z,17.08
2022-07-31T00:42:00.148Z,17.08
2022-07-31T00:43:00.099Z,17.09
2022-07-31T00:44:00.056Z,17.14
2022-07-31T00:44:59.999Z,17.02
2022-07-31T00:45:59.961Z,17.04
2022-07-31T00:47:00.034Z,17.02
2022-07-31T00:47:59.846Z,16.93
2022-07-31T00:48:59.835Z,16.89
2022-07-31T00:49:59.748Z,16.91
2022-07-31T00:50:59.711Z,16.84
2022-07-31T00:51:59.644Z,16.81
2022-07-31T00:52:59.607Z,16.79
2022-07-31T00:53:59.553Z,16.75
2022-07-31T00:54:59.494Z,16.76
2022-07-31T00:55:59.461Z,16.74
2022-07-31T00:56:59.504Z,16.71
2022-07-31T00:57:59.343Z,16.71
2022-07-31T00:58:59.295Z,16.66
2022-07-31T00:59:59.247Z,16.61
2022-07-31T01:00:59.255Z,16.57
2022-07-31T01:01:59.150Z,16.56
2022-07-31T01:02:59.104Z,16.54
2022-07-31T01:03:59.048Z,16.51
2022-07-31T01:04:59.003Z,16.50
2022-07-31T01:05:58.938Z,16.51
2022-07-31T01:06:58.890Z,16.49
2022-07-31T01:07:58.837Z,16.54
2022-07-31T01:08:58.787Z,16.54
2022-07-31T01:09:58.751Z,16.57
2022-07-31T01:10:58.684Z,16.56
2022-07-31T01:11:58.636Z,16.56
2022-07-31T01:12:58.582Z,16.53
2022-07-31T01:13:58.548Z,16.50
2022-07-31T01:14:58.482Z,16.51
2022-07-31T01:15:59.353Z,16.57
2022-07-31T01:16:58.378Z,16.57
2022-07-31T01:17:58.329Z,16.56
2022-07-31T01:18:58.297Z,16.57
2022-07-31T01:19:58.231Z,16.61
2022-07-31T01:20:58.180Z,16.66
2022-07-31T01:21:58.145Z,16.71
2022-07-31T01:22:58.075Z,16.72
2022-07-31T01:23:58.034Z,16.71
2022-07-31T01:24:57.978Z,16.75
2022-07-31T01:25:57.942Z,16.69
2022-07-31T01:26:57.892Z,16.69
2022-07-31T01:27:57.824Z,16.64
2022-07-31T01:28:57.774Z,16.71
2022-07-31T01:29:57.729Z,16.69
2022-07-31T01:31:17.243Z,16.64
2022-07-31T01:31:57.644Z,16.58
2022-07-31T01:32:57.572Z,16.53
2022-07-31T01:33:57.530Z,16.69
2022-07-31T01:34:57.499Z,16.61
2022-07-31T01:35:57.433Z,16.65
2022-07-31T01:36:57.391Z,16.60
2022-07-31T01:37:57.320Z,16.64
2022-07-31T01:38:57.268Z,16.64
2022-07-31T01:39:57.230Z,16.61
2022-07-31T01:40:57.167Z,16.60
2022-07-31T01:41:57.134Z,16.69
2022-07-31T01:42:57.078Z,16.65
2022-07-31T01:43:57.031Z,16.72
2022-07-31T01:44:56.965Z,16.71
2022-07-31T01:45:56.911Z,16.72
2022-07-31T01:46:56.861Z,16.71
2022-07-31T01:47:56.837Z,16.72
2022-07-31T01:48:56.783Z,16.79
2022-07-31T01:49:56.711Z,16.83
2022-07-31T01:50:56.665Z,16.71
2022-07-31T01:51:56.609Z,16.78
2022-07-31T01:52:56.574Z,16.84
2022-07-31T01:53:56.525Z,16.84
2022-07-31T01:54:56.463Z,16.78
2022-07-31T01:56:02.947Z,16.75
2022-07-31T01:56:56.364Z,16.89
2022-07-31T01:57:56.309Z,16.83
2022-07-31T01:58:56.268Z,16.79
2022-07-31T01:59:56.203Z,16.84
2022-07-31T02:00:56.172Z,16.79
2022-07-31T02:01:56.102Z,16.89
2022-07-31T02:02:56.068Z,16.83
2022-07-31T02:03:56.136Z,16.87
2022-07-31T02:04:55.947Z,16.84
2022-07-31T02:05:55.899Z,16.86
2022-07-31T02:06:55.861Z,16.90
2022-07-31T02:07:55.812Z,16.91
2022-07-31T02:08:55.765Z,16.90
2022-07-31T02:09:58.874Z,16.90
2022-07-31T02:10:55.649Z,16.94
2022-07-31T02:11:55.595Z,16.93
2022-07-31T02:12:55.544Z,16.96
2022-07-31T02:13:55.508Z,16.91
2022-07-31T02:14:55.445Z,16.97
2022-07-31T02:15:55.400Z,16.99
2022-07-31T02:16:55.341Z,16.97
2022-07-31T02:17:55.312Z,17.02
2022-07-31T02:18:55.260Z,16.87
2022-07-31T02:19:59.996Z,17.04
2022-07-31T02:20:55.138Z,16.99
2022-07-31T02:21:55.088Z,17.02
2022-07-31T02:22:55.040Z,16.89
2022-07-31T02:23:54.989Z,16.89
2022-07-31T02:24:54.950Z,16.97
2022-07-31T02:25:54.904Z,16.91
2022-07-31T02:26:54.834Z,16.87
2022-07-31T02:27:58.546Z,16.94
2022-07-31T02:28:54.733Z,16.91
2022-07-31T02:29:54.788Z,16.97
2022-07-31T02:30:54.639Z,17.04
2022-07-31T02:32:03.533Z,17.05
2022-07-31T02:32:54.532Z,17.04
2022-07-31T02:33:54.482Z,17.14
2022-07-31T02:34:54.433Z,17.14
2022-07-31T02:35:54.397Z,17.14
2022-07-31T02:36:54.330Z,17.12
2022-07-31T02:37:54.281Z,17.12
2022-07-31T02:38:54.226Z,17.16
2022-07-31T02:39:54.177Z,17.14
2022-07-31T02:40:54.151Z,17.19
2022-07-31T02:41:54.091Z,17.22
2022-07-31T02:42:54.059Z,17.19
2022-07-31T02:43:53.976Z,17.15
2022-07-31T02:44:53.930Z,17.14
2022-07-31T02:45:53.874Z,17.11
2022-07-31T02:46:53.846Z,17.12
2022-07-31T02:47:53.777Z,17.12
2022-07-31T02:48:53.752Z,17.15
2022-07-31T02:49:53.674Z,17.14
2022-07-31T02:50:53.623Z,17.14
2022-07-31T02:51:53.586Z,17.14
2022-07-31T02:52:53.537Z,17.12
2022-07-31T02:53:53.471Z,17.15
2022-07-31T02:54:53.418Z,17.08
2022-07-31T02:55:53.374Z,17.01
2022-07-31T02:56:53.334Z,17.02
2022-07-31T02:57:53.284Z,17.04
2022-07-31T02:58:53.227Z,16.89
2022-07-31T02:59:53.183Z,16.99
2022-07-31T03:00:53.190Z,16.99
2022-07-31T03:01:53.066Z,16.94
2022-07-31T03:02:53.084Z,16.97
2022-07-31T03:03:52.990Z,16.91
2022-07-31T03:04:52.913Z,16.91
2022-07-31T03:05:52.860Z,16.89
2022-07-31T03:06:52.814Z,16.90
2022-07-31T03:07:52.763Z,16.86
2022-07-31T03:08:52.725Z,16.84
2022-07-31T03:09:52.660Z,16.90
2022-07-31T03:10:52.624Z,16.81
2022-07-31T03:11:52.562Z,16.76
2022-07-31T03:12:52.514Z,16.78
2022-07-31T03:13:52.466Z,16.75
2022-07-31T03:14:52.411Z,16.75
2022-07-31T03:15:52.377Z,16.72
2022-07-31T03:16:52.308Z,16.75
2022-07-31T03:17:52.254Z,16.76
2022-07-31T03:18:52.224Z,16.75
2022-07-31T03:19:52.155Z,16.74
2022-07-31T03:20:52.120Z,16.78
2022-07-31T03:21:52.051Z,16.75
2022-07-31T03:22:52.019Z,16.74
2022-07-31T03:23:51.961Z,16.72
2022-07-31T03:24:51.920Z,16.69
2022-07-31T03:25:51.851Z,16.71
2022-07-31T03:26:51.803Z,16.76
2022-07-31T03:27:52.680Z,16.76
2022-07-31T03:28:51.698Z,16.71
2022-07-31T03:29:51.649Z,16.69
2022-07-31T03:30:51.597Z,16.75
2022-07-31T03:31:51.549Z,16.57
2022-07-31T03:32:51.493Z,16.54
2022-07-31T03:33:51.464Z,16.60
2022-07-31T03:34:51.395Z,16.56
2022-07-31T03:35:51.347Z,16.49
2022-07-31T03:36:51.294Z,16.49
2022-07-31T03:37:51.250Z,16.49
2022-07-31T03:38:51.198Z,16.54
2022-07-31T03:39:51.162Z,16.53
2022-07-31T03:40:51.088Z,16.53
2022-07-31T03:41:51.040Z,16.57
2022-07-31T03:42:50.998Z,16.50
2022-07-31T03:43:50.941Z,16.49
2022-07-31T03:44:50.884Z,16.53
2022-07-31T03:45:59.488Z,16.53
2022-07-31T03:46:50.838Z,16.61
2022-07-31T03:47:50.768Z,16.53
2022-07-31T03:48:50.770Z,16.58
2022-07-31T03:49:50.706Z,16.60
2022-07-31T03:50:50.650Z,16.61
2022-07-31T03:51:50.561Z,16.65
2022-07-31T03:52:50.514Z,16.61
2022-07-31T03:53:50.494Z,16.61
2022-07-31T03:54:50.428Z,16.66
2022-07-31T03:55:50.369Z,16.65
2022-07-31T03:56:50.330Z,16.61
2022-07-31T03:57:50.278Z,16.68
2022-07-31T03:58:52.751Z,16.72
2022-07-31T03:59:50.187Z,16.71
2022-07-31T04:00:50.090Z,16.76
2022-07-31T04:01:58.349Z,16.75
2022-07-31T04:02:50.057Z,16.72
2022-07-31T04:03:49.966Z,16.74
2022-07-31T04:04:49.908Z,16.83
2022-07-31T04:05:49.887Z,16.84
2022-07-31T04:06:49.807Z,16.74
2022-07-31T04:07:49.752Z,16.79
2022-07-31T04:08:49.745Z,16.75
2022-07-31T04:09:49.639Z,16.81
2022-07-31T04:10:49.609Z,16.78
2022-07-31T04:11:49.561Z,16.79
2022-07-31T04:12:49.500Z,16.75
2022-07-31T04:13:49.458Z,16.78
2022-07-31T04:14:49.437Z,16.81
2022-07-31T04:15:49.357Z,16.78
2022-07-31T04:16:49.327Z,16.81
2022-07-31T04:17:49.249Z,16.83
2022-07-31T04:18:50.937Z,16.75
2022-07-31T04:19:49.153Z,16.78
2022-07-31T04:20:49.105Z,16.76
2022-07-31T04:21:49.055Z,16.78
2022-07-31T04:22:49.428Z,16.87
2022-07-31T04:23:50.447Z,16.91
2022-07-31T04:24:48.926Z,16.81
2022-07-31T04:25:48.827Z,16.87
2022-07-31T04:26:48.823Z,16.89
2022-07-31T04:27:49.021Z,16.91
2022-07-31T04:28:48.707Z,16.96
2022-07-31T04:29:48.655Z,16.93
2022-07-31T04:30:48.589Z,16.94
2022-07-31T04:31:48.569Z,16.89
2022-07-31T04:32:48.481Z,16.97
2022-07-31T04:33:51.263Z,16.91
2022-07-31T04:34:48.381Z,16.87
2022-07-31T04:35:48.369Z,16.90
2022-07-31T04:36:48.293Z,17.08
2022-07-31T04:37:48.666Z,17.02
2022-07-31T04:38:48.191Z,16.97
2022-07-31T04:39:48.139Z,17.05
2022-07-31T04:40:48.098Z,16.99
2022-07-31T04:41:48.089Z,17.06
2022-07-31T04:42:48.002Z,17.14
2022-07-31T04:43:47.928Z,17.20
2022-07-31T04:44:47.880Z,17.16
2022-07-31T04:45:47.870Z,17.16
2022-07-31T04:46:47.793Z,17.14
2022-07-31T04:47:47.741Z,17.19
2022-07-31T04:48:49.252Z,17.20
2022-07-31T04:49:47.630Z,17.24
2022-07-31T04:50:47.605Z,17.16
2022-07-31T04:51:47.540Z,17.20
2022-07-31T04:52:47.484Z,17.20
2022-07-31T04:53:47.446Z,17.24
2022-07-31T04:54:47.380Z,17.24
2022-07-31T04:55:47.303Z,17.26
2022-07-31T04:56:47.292Z,17.27
2022-07-31T04:57:47.208Z,17.30
2022-07-31T04:58:47.191Z,17.27
2022-07-31T04:59:57.913Z,17.26
2022-07-31T05:00:47.075Z,17.29
2022-07-31T05:01:47.109Z,17.30
2022-07-31T05:02:46.961Z,17.38
2022-07-31T05:03:46.927Z,17.39
2022-07-31T05:04:46.880Z,17.42
2022-07-31T05:05:46.818Z,17.36
2022-07-31T05:06:46.810Z,17.38
2022-07-31T05:07:46.748Z,17.27
2022-07-31T05:08:46.680Z,17.36
2022-07-31T05:09:46.630Z,17.41
2022-07-31T05:10:46.567Z,17.39
2022-07-31T05:11:46.534Z,17.34
2022-07-31T05:12:46.476Z,17.30
2022-07-31T05:13:46.424Z,17.39
2022-07-31T05:14:46.370Z,17.38
2022-07-31T05:15:46.320Z,17.27
2022-07-31T05:16:46.281Z,17.41
2022-07-31T05:17:46.238Z,17.39
2022-07-31T05:18:46.185Z,17.39
2022-07-31T05:19:46.119Z,17.31
2022-07-31T05:20:46.068Z,17.42
2022-07-31T05:21:54.040Z,17.27
2022-07-31T05:22:45.992Z,17.41
2022-07-31T05:23:45.925Z,17.30
2022-07-31T05:24:45.866Z,17.38
2022-07-31T05:25:45.811Z,17.41
2022-07-31T05:26:45.802Z,17.52
2022-07-31T05:27:45.718Z,17.44
2022-07-31T05:28:46.669Z,17.48
2022-07-31T05:29:45.610Z,17.60
2022-07-31T05:30:45.566Z,17.57
2022-07-31T05:31:59.733Z,17.57
2022-07-31T05:32:45.458Z,17.63
2022-07-31T05:33:45.439Z,17.68
2022-07-31T05:34:45.370Z,17.74
2022-07-31T05:35:45.315Z,17.80
2022-07-31T05:36:45.268Z,17.80
2022-07-31T05:37:45.218Z,17.85
2022-07-31T05:38:45.197Z,17.94
2022-07-31T05:39:45.112Z,18.00
2022-07-31T05:40:45.051Z,18.05
2022-07-31T05:41:45.020Z,18.01
2022-07-31T05:42:44.954Z,18.03
2022-07-31T05:43:44.929Z,18.08
2022-07-31T05:44:44.866Z,18.11
2022-07-31T05:45:44.819Z,18.26
2022-07-31T05:46:44.769Z,18.26
2022-07-31T05:47:44.707Z,18.23
2022-07-31T05:48:44.710Z,18.25
2022-07-31T05:49:44.602Z,18.33
2022-07-31T05:50:44.557Z,18.41
2022-07-31T05:51:44.530Z,18.43
2022-07-31T05:52:44.445Z,18.52
2022-07-31T05:53:45.762Z,18.44
2022-07-31T05:54:44.367Z,18.52
2022-07-31T05:55:44.319Z,18.52
2022-07-31T05:56:44.267Z,18.63
2022-07-31T05:57:44.213Z,18.63
2022-07-31T05:58:44.219Z,18.65
2022-07-31T05:59:44.116Z,18.65
2022-07-31T06:00:44.059Z,18.66
2022-07-31T06:01:44.047Z,18.65
2022-07-31T06:02:43.961Z,18.74
2022-07-31T06:03:51.510Z,18.77
2022-07-31T06:04:43.874Z,18.75
2022-07-31T06:05:43.809Z,18.80
2022-07-31T06:06:43.791Z,18.80
2022-07-31T06:07:47.233Z,18.90
2022-07-31T06:08:43.674Z,18.84
2022-07-31T06:09:43.617Z,19.02
2022-07-31T06:10:43.559Z,19.04
2022-07-31T06:11:43.519Z,19.22
2022-07-31T06:12:43.494Z,19.34
2022-07-31T06:13:43.430Z,19.36
2022-07-31T06:14:43.379Z,19.45
2022-07-31T06:15:49.176Z,19.59
2022-07-31T06:16:43.259Z,19.71
2022-07-31T06:17:44.338Z,19.76
2022-07-31T06:18:43.179Z,20.00
2022-07-31T06:19:43.132Z,19.96
2022-07-31T06:20:43.076Z,20.00
2022-07-31T06:21:43.026Z,20.11
2022-07-31T06:22:43.006Z,20.09
2022-07-31T06:23:42.927Z,20.13
2022-07-31T06:24:43.456Z,20.25
2022-07-31T06:25:42.833Z,20.28
2022-07-31T06:26:42.797Z,20.40
2022-07-31T06:27:42.709Z,20.28
2022-07-31T06:28:48.526Z,20.47
2022-07-31T06:29:42.660Z,20.51
2022-07-31T06:30:42.626Z,20.58
2022-07-31T06:31:42.528Z,20.60
2022-07-31T06:32:42.481Z,20.69
2022-07-31T06:33:42.458Z,20.82
2022-07-31T06:34:42.397Z,20.85
2022-07-31T06:35:42.329Z,20.90
2022-07-31T06:36:42.303Z,20.90
2022-07-31T06:37:42.234Z,21.03
2022-07-31T06:38:42.212Z,21.05
2022-07-31T06:39:55.495Z,21.05
2022-07-31T06:40:42.101Z,21.00
2022-07-31T06:41:42.040Z,21.11
2022-07-31T06:42:41.992Z,21.18
2022-07-31T06:43:41.969Z,21.18
2022-07-31T06:44:46.037Z,21.24
2022-07-31T06:45:51.410Z,21.35
2022-07-31T06:46:48.798Z,21.29
2022-07-31T06:47:41.801Z,21.29
2022-07-31T06:48:41.699Z,21.30
2022-07-31T06:49:41.704Z,21.29
2022-07-31T06:50:41.609Z,21.27
2022-07-31T06:51:41.561Z,21.29
2022-07-31T06:52:41.544Z,21.30
2022-07-31T06:53:41.478Z,21.29
2022-07-31T06:54:41.405Z,21.40
2022-07-31T06:55:44.745Z,21.37
2022-07-31T06:56:41.333Z,21.50
2022-07-31T06:57:41.275Z,21.48
2022-07-31T06:58:41.249Z,21.48
2022-07-31T06:59:41.175Z,21.45
2022-07-31T07:00:41.108Z,21.52
2022-07-31T07:01:41.147Z,21.55
2022-07-31T07:02:41.028Z,21.55
2022-07-31T07:03:41.009Z,21.52
2022-07-31T07:04:57.366Z,21.62
2022-07-31T07:05:45.079Z,21.67
2022-07-31T07:06:40.875Z,21.58
2022-07-31T07:07:40.793Z,21.66
2022-07-31T07:08:40.748Z,21.66
2022-07-31T07:09:40.683Z,21.69
2022-07-31T07:10:40.656Z,21.69
2022-07-31T07:11:40.679Z,21.69
2022-07-31T07:12:40.555Z,21.67
2022-07-31T07:13:46.158Z,21.77
2022-07-31T07:14:40.451Z,21.85
2022-07-31T07:15:40.447Z,22.00
2022-07-31T07:16:40.362Z,22.06
2022-07-31T07:17:40.301Z,22.07
2022-07-31T07:18:40.268Z,22.10
2022-07-31T07:19:40.218Z,22.22
2022-07-31T07:20:40.198Z,22.23
2022-07-31T07:21:40.126Z,22.25
2022-07-31T07:22:40.061Z,22.30
2022-07-31T07:23:40.053Z,22.26
2022-07-31T07:24:39.979Z,22.26
2022-07-31T07:25:39.959Z,22.35
2022-07-31T07:26:39.878Z,22.38
2022-07-31T07:27:39.842Z,22.35
2022-07-31T07:28:39.797Z,22.41
2022-07-31T07:29:39.746Z,22.47
2022-07-31T07:30:39.801Z,22.39
2022-07-31T07:31:39.680Z,22.47
2022-07-31T07:32:39.617Z,22.36
2022-07-31T07:33:42.512Z,22.32
2022-07-31T07:34:39.488Z,22.20
2022-07-31T07:35:39.446Z,22.26
2022-07-31T07:36:39.452Z,22.26
2022-07-31T07:37:39.350Z,22.20
2022-07-31T07:38:39.323Z,22.38
2022-07-31T07:39:39.271Z,22.41
2022-07-31T07:40:39.226Z,22.50
2022-07-31T07:41:39.174Z,22.48
2022-07-31T07:42:39.146Z,22.50
2022-07-31T07:43:39.096Z,22.66
2022-07-31T07:44:39.023Z,22.63
2022-07-31T07:45:41.569Z,22.65
2022-07-31T07:46:38.964Z,22.68
2022-07-31T07:48:04.961Z,22.78
2022-07-31T07:48:38.842Z,22.80
2022-07-31T07:49:38.819Z,22.68
2022-07-31T07:50:38.757Z,22.62
2022-07-31T07:51:59.254Z,22.66
2022-07-31T07:52:53.560Z,22.75
2022-07-31T07:53:41.572Z,22.76
2022-07-31T07:54:41.562Z,22.94
2022-07-31T07:55:38.502Z,22.94
2022-07-31T07:56:38.471Z,23.00
2022-07-31T07:57:38.434Z,23.08
2022-07-31T07:58:38.398Z,23.03
2022-07-31T07:59:38.342Z,23.13
2022-07-31T08:00:38.286Z,23.17
2022-07-31T08:01:38.306Z,23.18
2022-07-31T08:02:38.204Z,23.37
2022-07-31T08:03:48.618Z,23.41
2022-07-31T08:04:38.082Z,23.43
2022-07-31T08:05:38.036Z,23.54
2022-07-31T08:06:37.999Z,23.54
2022-07-31T08:07:41.756Z,23.63
2022-07-31T08:08:37.910Z,23.71
2022-07-31T08:09:37.868Z,23.92
2022-07-31T08:10:37.809Z,23.81
2022-07-31T08:11:37.776Z,23.93
2022-07-31T08:12:37.748Z,24.06
2022-07-31T08:13:39.805Z,24.02
2022-07-31T08:14:37.628Z,23.91
2022-07-31T08:15:37.574Z,23.69
2022-07-31T08:16:37.541Z,23.55
2022-07-31T08:17:37.489Z,23.59
2022-07-31T08:18:37.473Z,23.71
2022-07-31T08:19:37.411Z,23.76
2022-07-31T08:20:37.385Z,23.87
2022-07-31T08:21:37.296Z,23.86
2022-07-31T08:22:37.287Z,24.08
2022-07-31T08:23:37.211Z,24.17
2022-07-31T08:24:37.168Z,24.33
2022-07-31T08:25:37.147Z,24.55
2022-07-31T08:26:37.070Z,24.70
2022-07-31T08:27:40.431Z,24.86
2022-07-31T08:28:36.991Z,25.06
2022-07-31T08:29:37.155Z,24.98
2022-07-31T08:30:36.906Z,24.99
2022-07-31T08:31:36.904Z,24.96
2022-07-31T08:32:36.847Z,25.13
2022-07-31T08:33:36.772Z,25.22
2022-07-31T08:34:41.702Z,25.31
2022-07-31T08:35:36.679Z,25.50
2022-07-31T08:36:36.614Z,25.48
2022-07-31T08:37:51.033Z,25.51
2022-07-31T08:38:36.528Z,25.60
2022-07-31T08:39:36.491Z,25.26
2022-07-31T08:40:43.010Z,25.14
2022-07-31T08:41:36.380Z,25.25
2022-07-31T08:42:36.379Z,25.35
2022-07-31T08:44:00.578Z,25.35
2022-07-31T08:44:36.269Z,25.48
2022-07-31T08:45:40.279Z,25.50
2022-07-31T08:46:36.181Z,25.51
2022-07-31T08:47:36.168Z,25.62
2022-07-31T08:48:36.087Z,25.73
2022-07-31T08:49:36.087Z,25.83
2022-07-31T08:50:35.989Z,25.93
2022-07-31T08:51:51.289Z,26.07
2022-07-31T08:52:35.903Z,26.25
2022-07-31T08:53:35.869Z,26.44
2022-07-31T08:54:35.811Z,26.60
2022-07-31T08:55:56.089Z,27.05
2022-07-31T08:56:35.758Z,27.21
2022-07-31T08:57:35.707Z,27.59
2022-07-31T08:58:39.258Z,27.82
2022-07-31T08:59:35.594Z,27.65
2022-07-31T09:00:35.571Z,27.68
2022-07-31T09:01:35.561Z,27.64
2022-07-31T09:02:35.459Z,27.64
2022-07-31T09:03:35.484Z,27.59
2022-07-31T09:04:35.397Z,27.42
2022-07-31T09:05:42.728Z,27.27
2022-07-31T09:06:35.297Z,27.27
2022-07-31T09:07:35.277Z,27.30
2022-07-31T09:08:35.200Z,27.27
2022-07-31T09:09:45.267Z,27.32
2022-07-31T09:10:35.159Z,27.51
2022-07-31T09:11:35.069Z,27.59
2022-07-31T09:12:35.172Z,27.70
2022-07-31T09:13:35.052Z,27.78
2022-07-31T09:14:34.946Z,27.83
2022-07-31T09:15:34.878Z,27.77
2022-07-31T09:16:34.850Z,27.89
2022-07-31T09:17:34.843Z,27.93
2022-07-31T09:18:34.786Z,28.01
2022-07-31T09:19:52.350Z,28.20
2022-07-31T09:20:34.694Z,28.54
2022-07-31T09:21:34.633Z,28.67
2022-07-31T09:22:34.602Z,28.88
2022-07-31T09:23:34.571Z,28.85
2022-07-31T09:24:36.965Z,28.84
2022-07-31T09:25:34.480Z,28.78
2022-07-31T09:26:34.428Z,28.59
2022-07-31T09:27:34.390Z,28.56
2022-07-31T09:28:34.384Z,28.56
2022-07-31T09:29:34.301Z,28.44
2022-07-31T09:30:34.262Z,28.49
2022-07-31T09:31:34.241Z,28.57
2022-07-31T09:32:34.183Z,28.57
2022-07-31T09:33:34.159Z,28.74
2022-07-31T09:34:34.131Z,28.81
2022-07-31T09:35:34.055Z,28.94
2022-07-31T09:36:34.031Z,29.08
2022-07-31T09:37:33.963Z,29.19
2022-07-31T09:38:33.921Z,29.45
2022-07-31T09:39:35.948Z,29.69
2022-07-31T09:40:33.840Z,29.86
2022-07-31T09:41:57.923Z,30.15
2022-07-31T09:42:33.756Z,30.53
2022-07-31T09:43:33.722Z,30.59
2022-07-31T09:44:33.669Z,30.72
2022-07-31T09:45:33.609Z,30.59
2022-07-31T09:46:33.593Z,29.98
2022-07-31T09:47:33.530Z,29.38
2022-07-31T09:48:33.502Z,29.01
2022-07-31T09:49:33.512Z,28.76
2022-07-31T09:50:33.419Z,28.76
2022-07-31T09:51:33.403Z,28.74
2022-07-31T09:52:33.487Z,28.85
2022-07-31T09:53:33.300Z,29.14
2022-07-31T09:54:33.239Z,29.24
2022-07-31T09:55:34.015Z,29.56
2022-07-31T09:56:33.171Z,29.73
2022-07-31T09:57:33.148Z,29.76
2022-07-31T09:58:33.113Z,29.90
2022-07-31T09:59:33.041Z,29.56
2022-07-31T10:00:44.637Z,29.41
2022-07-31T10:01:32.966Z,29.39
2022-07-31T10:02:32.879Z,29.56
2022-07-31T10:03:32.822Z,29.79
2022-07-31T10:04:33.124Z,29.71
2022-07-31T10:05:32.755Z,29.84
2022-07-31T10:06:32.700Z,30.00
2022-07-31T10:07:33.049Z,30.24
2022-07-31T10:08:32.665Z,30.40
2022-07-31T10:09:32.592Z,30.57
2022-07-31T10:10:32.633Z,30.57
2022-07-31T10:11:32.498Z,30.65
2022-07-31T10:12:32.451Z,30.51
2022-07-31T10:13:32.409Z,30.43
2022-07-31T10:14:32.367Z,30.48
2022-07-31T10:15:32.390Z,30.61
2022-07-31T10:16:32.289Z,30.84
2022-07-31T10:17:35.993Z,30.84
2022-07-31T10:18:36.075Z,30.94
2022-07-31T10:19:32.171Z,30.96
2022-07-31T10:20:32.138Z,30.78
2022-07-31T10:21:32.087Z,30.75
2022-07-31T10:22:32.042Z,30.69
2022-07-31T10:23:32.057Z,30.54
2022-07-31T10:24:31.959Z,30.40
2022-07-31T10:25:31.944Z,30.24
2022-07-31T10:26:57.837Z,30.15
2022-07-31T10:27:31.840Z,29.98
2022-07-31T10:28:31.797Z,29.79
2022-07-31T10:29:32.342Z,29.71
2022-07-31T10:30:31.715Z,29.50
2022-07-31T10:31:31.675Z,29.50
2022-07-31T10:32:31.628Z,29.38
2022-07-31T10:33:46.458Z,29.24
2022-07-31T10:34:31.591Z,29.17
2022-07-31T10:35:31.525Z,28.94
2022-07-31T10:36:31.468Z,28.69
2022-07-31T10:37:31.458Z,28.56
2022-07-31T10:38:34.389Z,28.74
2022-07-31T10:39:31.350Z,28.76
2022-07-31T10:40:31.304Z,28.63
2022-07-31T10:41:31.260Z,28.56
2022-07-31T10:42:31.216Z,28.57
2022-07-31T10:43:31.192Z,28.38
2022-07-31T10:44:33.482Z,28.39
2022-07-31T10:45:31.091Z,28.30
2022-07-31T10:46:31.058Z,28.25
2022-07-31T10:47:31.013Z,28.25
2022-07-31T10:48:30.995Z,28.14
2022-07-31T10:49:30.953Z,27.93
2022-07-31T10:50:30.887Z,27.63
2022-07-31T10:51:30.842Z,27.35
2022-07-31T10:52:30.800Z,27.20
2022-07-31T10:53:50.183Z,27.21
2022-07-31T10:54:30.717Z,27.21
2022-07-31T10:55:30.692Z,27.35
2022-07-31T10:56:30.649Z,27.44
2022-07-31T10:57:30.593Z,27.52
2022-07-31T10:58:30.548Z,27.48
2022-07-31T10:59:30.529Z,27.39
2022-07-31T11:00:30.471Z,27.47
2022-07-31T11:01:30.476Z,27.40
2022-07-31T11:02:30.388Z,27.36
2022-07-31T11:03:30.337Z,27.15
2022-07-31T11:04:30.317Z,26.97
2022-07-31T11:05:30.253Z,26.96
2022-07-31T11:06:30.211Z,27.02
2022-07-31T11:07:30.169Z,27.00
2022-07-31T11:08:30.126Z,27.05
2022-07-31T11:09:30.085Z,27.02
2022-07-31T11:10:30.053Z,26.97
2022-07-31T11:11:29.998Z,27.11
2022-07-31T11:12:29.957Z,27.27
2022-07-31T11:13:33.657Z,27.39
2022-07-31T11:14:29.871Z,27.63
2022-07-31T11:15:29.846Z,27.80
2022-07-31T11:16:29.788Z,27.95
2022-07-31T11:18:22.482Z,28.00
2022-07-31T11:18:33.972Z,28.08
2022-07-31T11:19:29.658Z,28.20
2022-07-31T11:20:29.637Z,28.20
2022-07-31T11:21:38.687Z,28.37
2022-07-31T11:22:31.208Z,28.60
2022-07-31T11:23:29.503Z,28.88
2022-07-31T11:24:29.448Z,29.16
2022-07-31T11:25:29.404Z,29.50
2022-07-31T11:26:33.077Z,29.53
2022-07-31T11:27:29.327Z,29.54
2022-07-31T11:28:29.280Z,29.73
2022-07-31T11:29:58.941Z,29.75
2022-07-31T11:30:29.218Z,29.69
2022-07-31T11:31:29.156Z,29.68
2022-07-31T11:32:29.112Z,29.54
2022-07-31T11:33:29.066Z,29.50
2022-07-31T11:34:29.040Z,29.47
2022-07-31T11:35:28.982Z,29.76
2022-07-31T11:36:28.943Z,29.88
2022-07-31T11:37:34.282Z,29.97
2022-07-31T11:38:28.860Z,30.13
2022-07-31T11:39:36.827Z,30.23
2022-07-31T11:40:28.843Z,30.15
2022-07-31T11:41:28.739Z,30.10
2022-07-31T11:42:32.048Z,30.02
2022-07-31T11:43:28.665Z,29.97
2022-07-31T11:44:28.623Z,29.84
2022-07-31T11:45:28.611Z,29.78
2022-07-31T11:46:28.551Z,29.71
2022-07-31T11:48:12.263Z,29.50
2022-07-31T11:48:28.460Z,29.41
2022-07-31T11:49:47.797Z,29.31
2022-07-31T11:50:28.379Z,29.24
2022-07-31T11:51:28.324Z,29.20
2022-07-31T11:52:31.302Z,29.19
2022-07-31T11:53:28.245Z,28.89
2022-07-31T11:54:28.233Z,28.89
2022-07-31T11:55:28.168Z,28.82
2022-07-31T11:56:28.114Z,28.85
2022-07-31T11:57:28.071Z,28.74
2022-07-31T11:58:28.036Z,28.67
2022-07-31T11:59:44.818Z,28.37
2022-07-31T12:00:30.120Z,28.08
2022-07-31T12:01:27.928Z,27.93
2022-07-31T12:02:27.921Z,27.96
2022-07-31T12:03:27.839Z,27.98
2022-07-31T12:04:27.779Z,27.96
2022-07-31T12:05:37.986Z,28.07
2022-07-31T12:06:30.051Z,28.08
2022-07-31T12:07:27.657Z,28.22
2022-07-31T12:08:27.620Z,28.15
2022-07-31T12:10:00.293Z,28.14
2022-07-31T12:10:27.532Z,27.93
2022-07-31T12:11:27.499Z,27.75
2022-07-31T12:12:27.530Z,27.74
2022-07-31T12:13:27.451Z,27.74
2022-07-31T12:14:27.390Z,27.87
2022-07-31T12:15:27.342Z,27.87
2022-07-31T12:16:27.282Z,28.00
2022-07-31T12:17:27.259Z,28.01
2022-07-31T12:18:27.191Z,28.00
2022-07-31T12:19:27.154Z,28.07
2022-07-31T12:20:35.498Z,28.15
2022-07-31T12:21:27.085Z,28.20
2022-07-31T12:22:27.038Z,28.10
2022-07-31T12:23:41.087Z,28.17
2022-07-31T12:24:26.951Z,28.27
2022-07-31T12:25:26.900Z,28.27
2022-07-31T12:26:26.894Z,28.37
2022-07-31T12:27:26.818Z,28.44
2022-07-31T12:28:26.791Z,28.54
2022-07-31T12:29:26.742Z,28.69
2022-07-31T12:30:30.009Z,28.57
2022-07-31T12:31:26.646Z,28.56
2022-07-31T12:32:26.598Z,28.72
2022-07-31T12:33:26.557Z,28.64
2022-07-31T12:34:26.531Z,28.72
2022-07-31T12:35:26.484Z,28.79
2022-07-31T12:36:26.428Z,29.04
2022-07-31T12:37:26.405Z,29.08
2022-07-31T12:38:44.150Z,29.13
2022-07-31T12:39:26.319Z,29.12
2022-07-31T12:40:26.265Z,29.22
2022-07-31T12:41:26.238Z,29.39
2022-07-31T12:42:31.217Z,29.65
2022-07-31T12:43:26.147Z,29.53
2022-07-31T12:44:26.117Z,29.50
2022-07-31T12:45:26.053Z,29.60
2022-07-31T12:46:26.063Z,29.60
2022-07-31T12:47:26.331Z,29.60
2022-07-31T12:48:25.928Z,29.61
2022-07-31T12:49:25.988Z,29.54
2022-07-31T12:50:25.859Z,29.75
2022-07-31T12:51:44.961Z,29.94